createdAt,value
2019-04-22T00:02:20.721Z,17.23
2019-04-22T00:05:01.052Z,15.05
2019-04-22T00:07:42.025Z,18.75
2019-04-22T00:10:19.405Z,19.32
2019-04-22T00:12:47.063Z,17.12
2019-04-22T00:15:10.123Z,18.85
2019-04-22T00:17:55.243Z,16.65
2019-04-22T00:20:14.442Z,19.40
2019-04-22T00:22:44.888Z,15.08
2019-04-22T00:25:20.953Z,16.12
2019-04-22T00:33:03.215Z,19.57
2019-04-22T00:35:31.911Z,20.12
2019-04-22T00:40:41.161Z,21.75
2019-04-22T00:43:07.032Z,17.10
2019-04-22T00:45:40.493Z,16.32
2019-04-22T00:48:16.378Z,14.00
2019-04-22T00:51:03.795Z,20.70
2019-04-22T00:53:16.343Z,15.32
2019-04-22T00:55:47.476Z,18.95
2019-04-22T00:58:16.736Z,17.50
2019-04-22T01:00:44.435Z,18.37
2019-04-22T01:03:19.987Z,17.40
2019-04-22T01:05:52.516Z,18.23
2019-04-22T01:08:23.513Z,18.15
2019-04-22T01:10:46.818Z,21.40
2019-04-22T01:13:23.161Z,19.15
2019-04-22T01:15:47.589Z,20.60
2019-04-22T01:18:21.006Z,19.52
2019-04-22T01:23:19.763Z,19.42
2019-04-22T01:25:46.461Z,21.12
2019-04-22T01:28:15.249Z,20.60
2019-04-22T01:30:43.050Z,13.58
2019-04-22T01:33:09.221Z,18.52
2019-04-22T01:35:47.366Z,18.70
2019-04-22T01:38:21.540Z,18.48
2019-04-22T01:41:01.095Z,28.42
2019-04-22T01:43:33.141Z,21.20
2019-04-22T01:46:02.598Z,18.60
2019-04-22T01:48:35.698Z,15.68
2019-04-22T01:50:58.334Z,17.02
2019-04-22T01:53:36.445Z,17.27
2019-04-22T01:56:05.424Z,17.10
2019-04-22T01:58:31.138Z,19.40
2019-04-22T02:01:02.661Z,16.62
2019-04-22T02:03:40.045Z,18.95
2019-04-22T02:06:07.215Z,15.43
2019-04-22T02:08:44.942Z,13.98
2019-04-22T02:11:07.806Z,14.85
2019-04-22T02:13:36.357Z,16.15
2019-04-22T02:16:15.068Z,19.12
2019-04-22T02:21:07.256Z,13.10
2019-04-22T02:31:35.943Z,23.02
2019-04-22T02:36:23.045Z,12.55
2019-04-22T02:44:08.160Z,24.47
2019-04-22T02:46:34.820Z,18.42
2019-04-22T02:59:12.410Z,14.85
2019-04-22T03:09:01.547Z,19.85
2019-04-22T03:11:26.398Z,18.10
2019-04-22T03:19:02.442Z,17.12
2019-04-22T03:21:33.980Z,18.02
2019-04-22T03:24:17.507Z,16.23
2019-04-22T03:26:48.880Z,18.12
2019-04-22T03:29:04.204Z,16.05
2019-04-22T03:39:43.528Z,14.60
2019-04-22T03:42:05.682Z,15.15
2019-04-22T03:49:37.162Z,14.73
2019-04-22T04:02:02.550Z,14.53
2019-04-22T04:04:32.664Z,19.00
2019-04-22T04:09:42.545Z,20.20
2019-04-22T04:12:05.501Z,14.25
2019-04-22T04:14:46.288Z,20.17
2019-04-22T04:32:27.418Z,14.45
2019-04-22T04:35:07.269Z,14.40
2019-04-22T04:37:28.155Z,17.17
2019-04-22T04:40:10.126Z,16.65
2019-04-22T04:42:25.484Z,15.98
2019-04-22T04:44:58.874Z,18.37
2019-04-22T04:47:32.934Z,15.00
2019-04-22T04:54:47.723Z,13.45
2019-04-22T04:57:26.275Z,12.25
2019-04-22T05:00:11.210Z,19.65
2019-04-22T05:02:20.448Z,19.20
2019-04-22T05:07:34.692Z,19.90
2019-04-22T05:09:44.810Z,16.40
2019-04-22T05:12:29.284Z,20.12
2019-04-22T05:14:50.467Z,18.48
2019-04-22T05:17:18.419Z,17.62
2019-04-22T05:19:47.670Z,16.50
2019-04-22T05:22:17.087Z,20.52
2019-04-22T05:24:59.810Z,16.07
2019-04-22T05:27:19.701Z,23.05
2019-04-22T05:30:13.582Z,26.07
2019-04-22T05:32:17.616Z,25.62
2019-04-22T05:34:48.716Z,16.95
2019-04-22T05:37:22.848Z,18.67
2019-04-22T05:39:52.424Z,20.27
2019-04-22T05:42:21.735Z,21.45
2019-04-22T05:44:49.593Z,21.97
2019-04-22T05:47:19.603Z,23.80
2019-04-22T05:49:49.799Z,19.30
2019-04-22T05:52:22.321Z,14.98
2019-04-22T05:54:55.319Z,19.10
2019-04-22T05:59:53.325Z,21.93
2019-04-22T06:02:30.972Z,21.17
2019-04-22T06:05:01.819Z,14.50
2019-04-22T06:07:29.469Z,20.48
2019-04-22T06:10:06.694Z,16.07
2019-04-22T06:12:32.243Z,16.80
2019-04-22T06:15:09.688Z,17.05
2019-04-22T06:17:47.365Z,20.30
2019-04-22T06:20:32.349Z,18.05
2019-04-22T06:23:04.442Z,19.95
2019-04-22T06:28:03.484Z,23.10
2019-04-22T06:30:34.567Z,17.07
2019-04-22T06:33:13.247Z,20.00
2019-04-22T06:35:46.946Z,20.77
2019-04-22T06:38:25.653Z,21.07
2019-04-22T06:40:42.287Z,17.55
2019-04-22T06:43:08.819Z,17.60
2019-04-22T06:45:34.795Z,14.68
2019-04-22T06:48:17.897Z,14.87
2019-04-22T06:50:41.660Z,17.07
2019-04-22T06:53:09.120Z,16.87
2019-04-22T06:55:41.487Z,20.45
2019-04-22T06:58:13.768Z,24.67
2019-04-22T07:00:42.536Z,17.90
2019-04-22T07:06:00.243Z,19.00
2019-04-22T07:13:21.110Z,20.92
2019-04-22T07:15:57.478Z,19.32
2019-04-22T07:18:22.155Z,21.20
2019-04-22T07:20:51.246Z,22.02
2019-04-22T07:23:22.874Z,16.82
2019-04-22T07:25:49.329Z,26.73
2019-04-22T07:28:15.696Z,18.55
2019-04-22T07:30:44.709Z,18.37
2019-04-22T07:38:25.739Z,20.72
2019-04-22T07:40:53.881Z,20.30
2019-04-22T07:43:32.149Z,31.75
2019-04-22T07:45:54.948Z,28.77
2019-04-22T07:51:07.219Z,24.40
2019-04-22T07:53:25.921Z,26.73
2019-04-22T07:55:52.331Z,20.92
2019-04-22T07:58:34.319Z,26.25
2019-04-22T08:01:02.107Z,24.27
2019-04-22T08:03:53.021Z,24.00
2019-04-22T08:06:08.674Z,22.67
2019-04-22T08:11:30.615Z,19.42
2019-04-22T08:13:30.875Z,24.00
2019-04-22T08:23:36.775Z,23.52
2019-04-22T08:26:00.874Z,25.88
2019-04-22T08:28:37.883Z,25.17
2019-04-22T08:31:10.564Z,23.50
2019-04-22T08:33:39.977Z,24.23
2019-04-22T08:36:12.035Z,29.42
2019-04-22T08:38:39.629Z,26.00
2019-04-22T08:41:33.429Z,24.25
2019-04-22T08:46:24.185Z,22.15
2019-04-22T08:51:23.741Z,23.47
2019-04-22T08:54:00.467Z,25.75
2019-04-22T08:56:28.363Z,22.55
2019-04-22T08:58:57.396Z,20.57
2019-04-22T09:01:23.825Z,22.95
2019-04-22T09:03:58.520Z,27.40
2019-04-22T09:06:38.462Z,23.90
2019-04-22T09:11:27.015Z,25.60
2019-04-22T09:13:57.176Z,23.85
2019-04-22T09:16:33.230Z,24.85
2019-04-22T09:24:00.738Z,23.83
2019-04-22T09:26:31.040Z,29.63
2019-04-22T09:29:06.638Z,24.65
2019-04-22T09:31:33.647Z,25.08
2019-04-22T09:33:53.706Z,23.55
2019-04-22T09:39:01.074Z,29.98
2019-04-22T09:41:31.880Z,33.60
2019-04-22T09:46:34.587Z,33.18
2019-04-22T09:49:06.357Z,33.67
2019-04-22T09:51:30.911Z,30.10
2019-04-22T09:54:12.379Z,31.23
2019-04-22T09:56:41.832Z,30.60
2019-04-22T09:59:05.466Z,36.60
2019-04-22T10:04:21.848Z,33.63
2019-04-22T10:11:38.366Z,30.48
2019-04-22T10:19:12.334Z,31.27
2019-04-22T10:21:46.265Z,32.50
2019-04-22T10:24:09.083Z,30.57
2019-04-22T10:26:44.066Z,28.05
2019-04-22T10:29:10.682Z,32.17
2019-04-22T10:31:47.684Z,39.60
2019-04-22T10:34:02.677Z,34.00
2019-04-22T10:36:17.582Z,36.50
2019-04-22T10:38:46.674Z,37.45
2019-04-22T10:41:16.683Z,30.15
2019-04-22T10:43:45.599Z,34.58
2019-04-22T10:46:15.763Z,30.12
2019-04-22T10:48:46.141Z,35.10
2019-04-22T10:51:16.825Z,38.78
2019-04-22T10:53:47.075Z,31.73
2019-04-22T10:56:16.959Z,34.60
2019-04-22T10:58:46.648Z,33.42
2019-04-22T11:01:15.889Z,32.58
2019-04-22T11:03:45.639Z,34.75
2019-04-22T11:06:14.982Z,37.95
2019-04-22T11:08:52.408Z,37.73
2019-04-22T11:11:25.958Z,42.90
2019-04-22T11:13:45.913Z,37.65
2019-04-22T11:16:17.290Z,39.98
2019-04-22T11:18:47.565Z,42.70
2019-04-22T11:21:17.768Z,32.28
2019-04-22T11:23:47.102Z,37.63
2019-04-22T11:26:16.013Z,47.48
2019-04-22T11:28:47.614Z,44.30
2019-04-22T11:31:16.842Z,46.77
2019-04-22T11:33:50.171Z,42.13
2019-04-22T11:36:19.912Z,38.33
2019-04-22T11:38:53.049Z,36.95
2019-04-22T11:41:19.572Z,36.42
2019-04-22T11:43:49.443Z,36.93
2019-04-22T11:46:18.499Z,39.38
2019-04-22T11:48:47.769Z,43.15
2019-04-22T11:51:18.020Z,37.30
2019-04-22T11:53:47.403Z,38.20
2019-04-22T11:56:16.811Z,37.85
2019-04-22T11:58:46.950Z,34.25
2019-04-22T12:01:16.886Z,34.83
2019-04-22T12:03:46.272Z,40.55
2019-04-22T12:06:15.823Z,40.50
2019-04-22T12:08:45.932Z,39.10
2019-04-22T12:11:16.696Z,37.93
2019-04-22T12:13:46.280Z,32.40
2019-04-22T12:16:15.250Z,40.17
2019-04-22T12:18:44.954Z,42.17
2019-04-22T12:21:15.274Z,38.08
2019-04-22T12:23:45.219Z,33.25
2019-04-22T12:26:18.835Z,31.52
2019-04-22T12:28:45.187Z,36.60
2019-04-22T12:31:15.385Z,31.77
2019-04-22T12:33:45.419Z,35.50
2019-04-22T12:36:14.958Z,33.53
2019-04-22T12:38:45.189Z,35.80
2019-04-22T12:41:15.907Z,38.48
2019-04-22T12:43:45.061Z,32.23
2019-04-22T12:46:14.438Z,32.93
2019-04-22T12:48:43.460Z,30.90
2019-04-22T12:51:13.285Z,31.12
2019-04-22T12:53:42.351Z,32.40
2019-04-22T12:56:12.618Z,32.95
2019-04-22T12:58:41.611Z,34.25
2019-04-22T13:01:10.962Z,36.23
2019-04-22T13:03:40.281Z,32.10
2019-04-22T13:06:09.876Z,31.42
2019-04-22T13:08:38.914Z,26.20
2019-04-22T13:11:12.275Z,33.15
2019-04-22T13:13:38.716Z,30.17
2019-04-22T13:16:09.005Z,30.17
2019-04-22T13:18:44.400Z,28.90
2019-04-22T13:21:08.809Z,26.75
2019-04-22T13:23:39.023Z,28.65
2019-04-22T13:26:08.465Z,31.73
2019-04-22T13:28:38.853Z,25.77
2019-04-22T13:31:07.945Z,28.35
2019-04-22T13:33:36.970Z,24.63
2019-04-22T13:36:06.122Z,26.70
2019-04-22T13:38:35.339Z,27.22
2019-04-22T13:41:17.303Z,21.33
2019-04-22T13:43:34.932Z,27.95
2019-04-22T13:46:05.606Z,20.35
2019-04-22T13:48:59.035Z,21.00
2019-04-22T13:51:36.220Z,21.05
2019-04-22T13:54:36.477Z,19.12
2019-04-22T13:56:25.181Z,20.60
2019-04-22T13:58:53.074Z,25.55
2019-04-22T14:01:10.228Z,20.32
2019-04-22T14:03:50.043Z,19.67
2019-04-22T14:06:18.911Z,19.67
2019-04-22T14:08:49.390Z,19.05
2019-04-22T14:11:31.756Z,19.23
2019-04-22T14:13:50.225Z,18.67
2019-04-22T14:16:19.527Z,11.88
2019-04-22T14:18:49.664Z,13.58
2019-04-22T14:21:20.859Z,10.00
2019-04-22T14:23:50.939Z,16.30
2019-04-22T14:26:20.025Z,12.75
2019-04-22T14:28:50.051Z,11.85
2019-04-22T14:31:20.389Z,12.25
2019-04-22T14:33:53.656Z,13.20
2019-04-22T14:36:21.276Z,14.70
2019-04-22T14:38:50.286Z,14.90
2019-04-22T14:41:37.753Z,12.85
2019-04-22T14:44:47.222Z,10.75
2019-04-22T14:46:49.291Z,12.45
2019-04-22T14:49:22.383Z,15.15
2019-04-22T14:51:48.858Z,16.60
2019-04-22T14:54:09.735Z,18.77
2019-04-22T14:56:22.470Z,16.87
2019-04-22T14:58:51.399Z,15.58
2019-04-22T15:01:21.091Z,15.90
2019-04-22T15:03:50.409Z,17.27
2019-04-22T15:06:20.131Z,16.97
2019-04-22T15:08:49.059Z,15.00
2019-04-22T15:11:19.180Z,15.88
2019-04-22T15:13:49.568Z,16.48
2019-04-22T15:16:36.343Z,19.67
2019-04-22T15:19:19.966Z,15.05
2019-04-22T15:21:50.285Z,17.60
2019-04-22T15:24:25.131Z,18.07
2019-04-22T15:26:56.319Z,21.73
2019-04-22T15:29:25.549Z,17.02
2019-04-22T15:31:55.664Z,18.80
2019-04-22T15:34:25.089Z,18.37
2019-04-22T15:36:55.852Z,21.23
2019-04-22T15:39:25.098Z,17.12
2019-04-22T15:42:01.037Z,21.23
2019-04-22T15:44:25.999Z,24.00
2019-04-22T15:46:55.138Z,25.10
2019-04-22T15:49:24.454Z,21.12
2019-04-22T15:51:56.858Z,20.25
2019-04-22T15:54:23.915Z,17.25
2019-04-22T15:56:52.787Z,15.38
2019-04-22T15:59:41.506Z,18.20
2019-04-22T16:01:53.188Z,17.45
2019-04-22T16:04:23.032Z,17.95
2019-04-22T16:06:52.773Z,23.65
2019-04-22T16:09:22.785Z,22.25
2019-04-22T16:11:52.104Z,23.47
2019-04-22T16:14:25.486Z,21.00
2019-04-22T16:16:52.558Z,22.75
2019-04-22T16:19:21.507Z,17.65
2019-04-22T16:21:56.476Z,20.65
2019-04-22T16:24:40.714Z,22.95
2019-04-22T16:27:12.068Z,20.95
2019-04-22T16:29:41.350Z,18.30
2019-04-22T16:32:11.535Z,16.05
2019-04-22T16:34:42.338Z,18.98
2019-04-22T16:37:12.579Z,20.00
2019-04-22T16:39:43.716Z,17.40
2019-04-22T16:42:26.942Z,18.77
2019-04-22T16:44:45.988Z,15.13
2019-04-22T16:47:13.412Z,15.23
2019-04-22T16:49:43.674Z,18.37
2019-04-22T16:52:14.023Z,19.92
2019-04-22T16:54:44.501Z,16.60
2019-04-22T16:57:13.463Z,17.80
2019-04-22T16:59:42.738Z,16.32
2019-04-22T17:02:22.597Z,17.90
2019-04-22T17:04:56.001Z,20.45
2019-04-22T17:07:24.833Z,18.85
2019-04-22T17:09:53.758Z,19.17
2019-04-22T17:12:23.730Z,19.55
2019-04-22T17:14:58.577Z,18.55
2019-04-22T17:17:24.577Z,23.75
2019-04-22T17:19:53.527Z,29.27
2019-04-22T17:22:23.741Z,34.30
2019-04-22T17:24:53.954Z,25.88
2019-04-22T17:27:24.295Z,44.08
2019-04-22T17:29:54.692Z,29.05
2019-04-22T17:32:26.564Z,33.45
2019-04-22T17:34:54.153Z,26.17
2019-04-22T17:37:26.541Z,30.40
2019-04-22T17:40:10.191Z,23.98
2019-04-22T17:42:42.402Z,22.05
2019-04-22T17:45:22.318Z,23.05
2019-04-22T17:48:03.836Z,22.60
2019-04-22T17:50:43.384Z,48.35
2019-04-22T17:53:17.019Z,24.57
2019-04-22T17:55:40.471Z,19.55
2019-04-22T17:58:14.839Z,22.30
2019-04-22T18:00:36.384Z,18.50
2019-04-22T18:03:07.144Z,21.50
2019-04-22T18:05:31.948Z,19.40
2019-04-22T18:08:14.696Z,16.35
2019-04-22T18:10:40.765Z,16.80
2019-04-22T18:13:23.451Z,18.95
2019-04-22T18:15:43.535Z,16.30
2019-04-22T18:18:18.637Z,14.80
2019-04-22T18:20:41.199Z,20.80
2019-04-22T18:23:04.281Z,16.70
2019-04-22T18:25:50.696Z,12.25
2019-04-22T18:28:22.234Z,15.50
2019-04-22T18:30:37.403Z,17.32
2019-04-22T18:33:20.824Z,18.50
2019-04-22T18:35:46.864Z,25.35
2019-04-22T18:38:29.753Z,14.28
2019-04-22T18:40:44.841Z,16.40
2019-04-22T18:43:26.017Z,11.88
2019-04-22T18:46:00.383Z,12.78
2019-04-22T18:48:12.502Z,12.75
2019-04-22T18:51:18.869Z,11.43
2019-04-22T18:53:53.716Z,11.75
2019-04-22T18:56:25.316Z,11.60
2019-04-22T18:58:48.782Z,11.63
2019-04-22T19:01:08.227Z,11.95
2019-04-22T19:03:49.719Z,11.83
2019-04-22T19:06:34.065Z,14.10
2019-04-22T19:09:03.191Z,8.40
2019-04-22T19:11:27.074Z,14.28
2019-04-22T19:16:38.273Z,14.23
2019-04-22T19:19:20.966Z,16.85
2019-04-22T19:21:36.303Z,20.37
2019-04-22T19:24:06.759Z,13.55
2019-04-22T19:26:50.051Z,11.60
2019-04-22T19:29:18.660Z,17.12
2019-04-22T19:31:51.179Z,14.15
2019-04-22T19:34:20.423Z,17.50
2019-04-22T19:36:58.961Z,13.00
2019-04-22T19:39:22.797Z,13.70
2019-04-22T19:42:01.896Z,12.73
2019-04-22T19:44:36.363Z,17.02
2019-04-22T19:47:22.590Z,11.73
2019-04-22T19:49:45.458Z,20.25
2019-04-22T19:52:11.359Z,24.37
2019-04-22T19:54:40.601Z,21.25
2019-04-22T19:57:03.681Z,19.40
2019-04-22T19:59:32.821Z,17.25
2019-04-22T20:02:09.528Z,16.25
2019-04-22T20:04:54.437Z,15.10
2019-04-22T20:07:18.321Z,16.35
2019-04-22T20:09:53.726Z,16.55
2019-04-22T20:12:18.999Z,16.30
2019-04-22T20:14:51.195Z,17.42
2019-04-22T20:17:26.597Z,13.53
2019-04-22T20:19:56.052Z,17.20
2019-04-22T20:22:17.868Z,19.32
2019-04-22T20:24:43.376Z,16.97
2019-04-22T20:27:22.514Z,16.97
2019-04-22T20:29:54.329Z,15.90
2019-04-22T20:32:23.496Z,19.67
2019-04-22T20:34:57.962Z,17.15
2019-04-22T20:39:57.213Z,19.92
2019-04-22T20:42:42.086Z,18.87
2019-04-22T20:44:57.144Z,12.07
2019-04-22T20:47:23.738Z,16.73
2019-04-22T20:50:02.276Z,16.93
2019-04-22T20:54:58.944Z,9.83
2019-04-22T20:57:35.323Z,14.07
2019-04-22T20:59:55.941Z,11.95
2019-04-22T21:02:23.854Z,18.73
2019-04-22T21:04:53.885Z,16.32
2019-04-22T21:07:26.686Z,12.93
2019-04-22T21:10:07.698Z,19.42
2019-04-22T21:12:27.321Z,14.50
2019-04-22T21:15:10.607Z,15.88
2019-04-22T21:17:34.805Z,16.62
2019-04-22T21:20:14.035Z,17.45
2019-04-22T21:22:39.473Z,19.27
2019-04-22T21:25:02.371Z,13.22
2019-04-22T21:27:42.387Z,19.73
2019-04-22T21:30:01.501Z,19.87
2019-04-22T21:32:38.887Z,18.25
2019-04-22T21:35:14.423Z,22.80
2019-04-22T21:37:42.975Z,19.82
2019-04-22T21:40:10.621Z,22.98
2019-04-22T21:42:48.611Z,17.80
2019-04-22T21:45:07.224Z,24.35
2019-04-22T21:47:53.492Z,26.80
2019-04-22T21:50:28.372Z,13.75
2019-04-22T21:52:42.667Z,15.85
2019-04-22T21:55:16.987Z,22.10
2019-04-22T21:57:57.185Z,17.12
2019-04-22T22:00:31.410Z,19.15
2019-04-22T22:03:03.694Z,16.60
2019-04-22T22:05:15.350Z,19.92
2019-04-22T22:07:40.359Z,17.90
2019-04-22T22:10:30.988Z,14.85
2019-04-22T22:13:03.579Z,13.98
2019-04-22T22:15:31.840Z,25.15
2019-04-22T22:17:55.548Z,21.07
2019-04-22T22:20:37.789Z,15.53
2019-04-22T22:23:12.407Z,16.48
2019-04-22T22:25:31.600Z,17.60
2019-04-22T22:28:02.105Z,17.77
2019-04-22T22:30:48.463Z,14.53
2019-04-22T22:33:05.947Z,14.93
2019-04-22T22:35:39.365Z,15.35
2019-04-22T22:38:06.660Z,22.30
2019-04-22T22:40:19.905Z,25.43
2019-04-22T22:42:49.272Z,16.73
2019-04-22T22:45:26.230Z,18.32
2019-04-22T22:48:17.208Z,19.40
2019-04-22T22:50:40.289Z,10.35
2019-04-22T22:53:22.621Z,18.15
2019-04-22T22:55:42.881Z,25.40
2019-04-22T22:58:24.673Z,19.15
2019-04-22T23:01:06.390Z,22.27
2019-04-22T23:03:55.873Z,15.23
2019-04-22T23:06:44.451Z,15.68
2019-04-22T23:09:32.056Z,16.05
2019-04-22T23:14:31.201Z,13.48
2019-04-22T23:16:48.696Z,26.23
2019-04-22T23:19:11.126Z,18.60
2019-04-22T23:21:45.870Z,17.55
2019-04-22T23:24:27.444Z,10.78
2019-04-22T23:27:03.115Z,24.50
2019-04-22T23:29:32.291Z,17.12
2019-04-22T23:32:08.743Z,16.23
2019-04-22T23:34:42.982Z,27.02
2019-04-22T23:37:08.465Z,14.28
2019-04-22T23:39:54.560Z,28.90
2019-04-22T23:44:49.627Z,25.05
2019-04-22T23:47:11.011Z,18.25
2019-04-22T23:49:48.466Z,21.27
2019-04-22T23:52:35.648Z,19.50
2019-04-22T23:54:57.096Z,27.98
2019-04-22T23:57:30.737Z,28.92
2019-04-22T23:59:55.333Z,26.17
